createdAt,value
2023-03-15T00:02:13.742Z,65.93
2023-03-15T00:04:42.977Z,64.95
2023-03-15T00:07:12.553Z,64.57
2023-03-15T00:09:41.813Z,68.07
2023-03-15T00:12:13.200Z,59.63
2023-03-15T00:14:44.011Z,61.72
2023-03-15T00:17:13.638Z,60.90
2023-03-15T00:19:42.900Z,58.45
2023-03-15T00:22:12.470Z,58.67
2023-03-15T00:24:41.787Z,61.58
2023-03-15T00:27:11.393Z,63.78
2023-03-15T00:29:40.699Z,57.40
2023-03-15T00:32:10.027Z,59.15
2023-03-15T00:34:39.266Z,57.35
2023-03-15T00:37:08.672Z,88.93
2023-03-15T00:39:39.597Z,61.92
2023-03-15T00:42:09.094Z,53.50
2023-03-15T00:44:41.443Z,58.63
2023-03-15T00:47:15.836Z,51.65
2023-03-15T00:49:45.220Z,54.75
2023-03-15T00:52:15.124Z,58.95
2023-03-15T00:54:45.299Z,51.53
2023-03-15T00:57:14.640Z,50.47
2023-03-15T00:59:45.976Z,49.53
2023-03-15T01:02:15.463Z,46.80
2023-03-15T01:04:44.609Z,48.60
2023-03-15T01:07:13.821Z,46.03
2023-03-15T01:09:43.291Z,48.15
2023-03-15T01:12:12.639Z,47.30
2023-03-15T01:14:41.782Z,52.38
2023-03-15T01:17:11.027Z,47.97
2023-03-15T01:19:40.261Z,46.78
2023-03-15T01:22:09.492Z,50.42
2023-03-15T01:28:02.918Z,44.75
2023-03-15T01:30:32.106Z,44.38
2023-03-15T01:33:01.565Z,43.50
2023-03-15T01:35:30.821Z,41.08
2023-03-15T01:38:11.921Z,42.33
2023-03-15T01:40:52.901Z,41.33
2023-03-15T01:43:26.628Z,40.35
2023-03-15T01:46:27.763Z,41.75
2023-03-15T01:49:17.266Z,39.70
2023-03-15T01:52:14.322Z,42.10
2023-03-15T01:55:12.324Z,42.13
2023-03-15T01:57:52.500Z,41.35
2023-03-15T02:00:26.195Z,40.17
2023-03-15T02:03:07.522Z,38.58
2023-03-15T02:06:19.276Z,38.40
2023-03-15T02:09:06.899Z,36.72
2023-03-15T02:11:37.449Z,36.33
2023-03-15T02:14:07.940Z,35.22
2023-03-15T02:16:37.796Z,35.88
2023-03-15T02:19:14.458Z,34.20
2023-03-15T02:21:49.452Z,34.95
2023-03-15T02:24:57.315Z,33.30
2023-03-15T02:27:36.520Z,33.53
2023-03-15T02:30:08.476Z,35.00
2023-03-15T02:32:37.840Z,32.75
2023-03-15T02:35:10.692Z,34.42
2023-03-15T02:37:39.976Z,32.03
2023-03-15T02:40:23.228Z,31.05
2023-03-15T02:42:57.470Z,30.10
2023-03-15T02:45:30.429Z,30.20
2023-03-15T02:48:01.074Z,29.30
2023-03-15T02:50:30.734Z,29.45
2023-03-15T02:52:59.929Z,29.13
2023-03-15T02:55:29.082Z,28.38
2023-03-15T02:57:58.344Z,27.85
2023-03-15T03:00:27.951Z,26.90
2023-03-15T03:03:15.500Z,26.77
2023-03-15T03:05:44.603Z,27.63
2023-03-15T03:08:17.395Z,26.00
2023-03-15T03:10:46.555Z,25.73
2023-03-15T03:13:15.874Z,24.23
2023-03-15T03:15:46.562Z,23.75
2023-03-15T03:18:15.810Z,24.75
2023-03-15T03:20:49.761Z,24.92
2023-03-15T03:23:19.861Z,24.02
2023-03-15T03:25:49.133Z,24.35
2023-03-15T03:28:18.224Z,22.08
2023-03-15T03:30:47.381Z,25.52
2023-03-15T03:33:16.540Z,24.00
2023-03-15T03:35:46.181Z,23.63
2023-03-15T03:38:16.330Z,26.42
2023-03-15T03:40:47.090Z,20.40
2023-03-15T03:43:16.339Z,18.20
2023-03-15T03:45:45.561Z,19.10
2023-03-15T03:48:14.832Z,19.70
2023-03-15T03:50:44.084Z,19.10
2023-03-15T03:53:13.326Z,18.27
2023-03-15T03:55:43.653Z,16.17
2023-03-15T03:58:12.858Z,19.27
2023-03-15T04:00:42.855Z,19.42
2023-03-15T04:03:12.024Z,19.58
2023-03-15T04:05:42.843Z,18.83
2023-03-15T04:08:11.957Z,19.77
2023-03-15T04:10:41.150Z,21.10
2023-03-15T04:13:10.414Z,19.90
2023-03-15T04:15:39.649Z,20.73
2023-03-15T04:18:08.937Z,18.88
2023-03-15T04:20:38.477Z,20.58
2023-03-15T04:23:08.330Z,18.48
2023-03-15T04:25:37.902Z,18.65
2023-03-15T04:28:11.536Z,19.00
2023-03-15T04:30:40.726Z,18.08
2023-03-15T04:33:11.892Z,16.73
2023-03-15T04:35:43.529Z,16.02
2023-03-15T04:38:12.801Z,17.08
2023-03-15T04:40:43.800Z,17.00
2023-03-15T04:43:13.026Z,15.10
2023-03-15T04:45:42.185Z,15.85
2023-03-15T04:48:11.919Z,15.70
2023-03-15T04:50:41.198Z,15.93
2023-03-15T04:53:10.369Z,15.02
2023-03-15T04:55:39.463Z,16.20
2023-03-15T04:58:08.664Z,16.75
2023-03-15T05:00:37.875Z,17.75
2023-03-15T05:03:07.241Z,15.82
2023-03-15T05:05:36.428Z,16.63
2023-03-15T05:08:05.852Z,16.20
2023-03-15T05:10:35.272Z,16.95
2023-03-15T05:13:04.468Z,16.98
2023-03-15T05:15:33.943Z,16.25
2023-03-15T05:18:03.088Z,16.73
2023-03-15T05:20:33.063Z,17.27
2023-03-15T05:23:02.332Z,16.58
2023-03-15T05:25:31.906Z,16.63
2023-03-15T05:28:01.059Z,14.57
2023-03-15T05:30:30.215Z,14.70
2023-03-15T05:32:59.875Z,14.93
2023-03-15T05:35:29.388Z,15.10
2023-03-15T05:37:58.658Z,14.80
2023-03-15T05:40:30.739Z,12.65
2023-03-15T05:43:00.447Z,13.45
2023-03-15T05:45:29.623Z,12.95
2023-03-15T05:47:58.782Z,13.93
2023-03-15T05:50:29.249Z,14.38
2023-03-15T05:52:59.513Z,14.63
2023-03-15T05:55:28.813Z,13.40
2023-03-15T05:57:57.969Z,13.30
2023-03-15T06:00:27.133Z,14.43
2023-03-15T06:02:56.344Z,14.55
2023-03-15T06:05:25.824Z,14.15
2023-03-15T06:07:54.994Z,14.25
2023-03-15T06:10:24.383Z,14.18
2023-03-15T06:12:53.811Z,14.30
2023-03-15T06:15:22.983Z,15.02
2023-03-15T06:17:52.405Z,14.43
2023-03-15T06:20:21.790Z,14.85
2023-03-15T06:22:51.076Z,14.73
2023-03-15T06:25:20.403Z,13.32
2023-03-15T06:27:49.584Z,13.40
2023-03-15T06:30:19.016Z,14.50
2023-03-15T06:32:48.386Z,15.00
2023-03-15T06:35:17.729Z,14.40
2023-03-15T06:37:46.909Z,16.80
2023-03-15T06:40:16.732Z,14.80
2023-03-15T06:42:45.919Z,14.80
2023-03-15T06:45:17.382Z,14.05
2023-03-15T06:47:46.631Z,14.48
2023-03-15T06:50:15.847Z,16.45
2023-03-15T06:52:45.009Z,15.40
2023-03-15T06:55:18.978Z,15.73
2023-03-15T06:57:48.219Z,15.02
2023-03-15T07:00:18.148Z,15.77
2023-03-15T07:02:47.705Z,15.32
2023-03-15T07:05:16.971Z,15.77
2023-03-15T07:07:46.248Z,14.95
2023-03-15T07:10:15.464Z,16.27
2023-03-15T07:12:45.283Z,16.67
2023-03-15T07:15:17.028Z,16.30
2023-03-15T07:17:46.631Z,16.52
2023-03-15T07:20:16.164Z,16.30
2023-03-15T07:22:46.631Z,14.80
2023-03-15T07:25:15.996Z,15.95
2023-03-15T07:27:45.436Z,15.75
2023-03-15T07:30:15.395Z,15.88
2023-03-15T07:32:44.827Z,15.95
2023-03-15T07:35:14.748Z,15.98
2023-03-15T07:37:44.814Z,16.33
2023-03-15T07:40:16.941Z,15.45
2023-03-15T07:42:46.911Z,15.00
2023-03-15T07:45:16.263Z,16.30
2023-03-15T07:47:45.865Z,16.33
2023-03-15T07:50:17.079Z,17.00
2023-03-15T07:52:46.485Z,15.35
2023-03-15T07:55:15.694Z,16.33
2023-03-15T07:57:44.824Z,16.85
2023-03-15T08:00:15.551Z,15.98
2023-03-15T08:02:44.920Z,16.38
2023-03-15T08:05:14.118Z,14.60
2023-03-15T08:07:43.388Z,16.17
2023-03-15T08:10:13.322Z,15.52
2023-03-15T08:12:44.098Z,16.25
2023-03-15T08:15:15.383Z,16.27
2023-03-15T08:17:45.078Z,15.75
2023-03-15T08:20:15.954Z,15.32
2023-03-15T08:22:50.340Z,15.05
2023-03-15T08:25:25.264Z,17.50
2023-03-15T08:27:55.386Z,16.58
2023-03-15T08:30:25.431Z,17.42
2023-03-15T08:32:55.228Z,16.98
2023-03-15T08:35:24.647Z,16.85
2023-03-15T08:37:54.333Z,16.80
2023-03-15T08:40:26.779Z,17.05
2023-03-15T08:42:57.221Z,17.20
2023-03-15T08:45:27.936Z,18.88
2023-03-15T08:48:01.560Z,19.40
2023-03-15T08:50:32.786Z,18.88
2023-03-15T08:53:01.890Z,17.70
2023-03-15T08:55:31.010Z,16.80
2023-03-15T08:58:03.424Z,18.08
2023-03-15T09:00:33.880Z,16.77
2023-03-15T09:03:03.232Z,17.60
2023-03-15T09:05:32.351Z,18.50
2023-03-15T09:08:02.869Z,17.63
2023-03-15T09:10:32.250Z,18.70
2023-03-15T09:13:01.807Z,18.27
2023-03-15T09:15:31.573Z,17.55
2023-03-15T09:18:00.688Z,18.40
2023-03-15T09:20:30.625Z,17.88
2023-03-15T09:23:00.763Z,17.67
2023-03-15T09:25:30.548Z,17.98
2023-03-15T09:28:02.648Z,17.20
2023-03-15T09:30:32.234Z,17.65
2023-03-15T09:33:01.731Z,18.48
2023-03-15T09:35:30.957Z,17.65
2023-03-15T09:38:00.186Z,18.83
2023-03-15T09:40:42.608Z,18.23
2023-03-15T09:43:17.283Z,17.08
2023-03-15T09:46:32.945Z,18.98
2023-03-15T09:49:25.017Z,16.92
2023-03-15T09:52:13.979Z,18.38
2023-03-15T09:54:59.726Z,17.52
2023-03-15T09:57:50.150Z,18.65
2023-03-15T10:00:34.307Z,17.40
2023-03-15T10:03:08.122Z,17.50
2023-03-15T10:05:48.642Z,18.65
2023-03-15T10:08:21.248Z,17.83
2023-03-15T10:11:46.884Z,20.83
2023-03-15T10:14:53.883Z,18.17
2023-03-15T10:18:11.135Z,18.95
2023-03-15T10:20:49.298Z,16.90
2023-03-15T10:23:55.932Z,18.17
2023-03-15T10:26:35.960Z,17.98
2023-03-15T10:29:15.519Z,19.58
2023-03-15T10:31:48.275Z,19.00
2023-03-15T10:34:18.143Z,18.98
2023-03-15T10:36:56.240Z,18.08
2023-03-15T10:41:56.093Z,20.08
2023-03-15T10:44:29.174Z,18.95
2023-03-15T10:47:22.106Z,19.85
2023-03-15T10:49:58.823Z,20.55
2023-03-15T10:52:32.688Z,21.00
2023-03-15T10:55:08.682Z,22.50
2023-03-15T10:57:51.969Z,19.27
2023-03-15T11:00:37.644Z,20.52
2023-03-15T11:03:20.671Z,20.27
2023-03-15T11:05:56.770Z,22.25
2023-03-15T11:08:42.943Z,22.95
2023-03-15T11:11:12.380Z,22.00
2023-03-15T11:13:55.828Z,23.33
2023-03-15T11:16:25.233Z,21.08
2023-03-15T11:19:01.438Z,22.15
2023-03-15T11:21:35.114Z,23.95
2023-03-15T11:24:08.009Z,22.88
2023-03-15T11:26:52.431Z,22.88
2023-03-15T11:29:31.003Z,23.27
2023-03-15T11:32:03.478Z,23.55
2023-03-15T11:35:12.228Z,24.30
2023-03-15T11:37:53.002Z,24.27
2023-03-15T11:40:24.898Z,23.38
2023-03-15T11:42:59.677Z,22.67
2023-03-15T11:46:09.801Z,23.25
2023-03-15T11:48:59.960Z,23.48
2023-03-15T11:51:35.878Z,22.40
2023-03-15T11:54:13.024Z,23.45
2023-03-15T11:57:02.464Z,28.25
2023-03-15T11:59:35.254Z,27.35
2023-03-15T12:02:16.348Z,26.10
2023-03-15T12:05:01.810Z,27.75
2023-03-15T12:07:40.005Z,26.45
2023-03-15T12:10:33.549Z,28.67
2023-03-15T12:13:23.929Z,27.85
2023-03-15T12:15:54.374Z,26.83
2023-03-15T12:18:47.285Z,26.10
2023-03-15T12:21:27.733Z,32.83
2023-03-15T12:24:37.121Z,29.75
2023-03-15T12:27:16.016Z,31.10
2023-03-15T12:29:48.741Z,31.92
2023-03-15T12:32:20.364Z,38.50
2023-03-15T12:34:55.192Z,33.10
2023-03-15T12:37:54.710Z,33.65
2023-03-15T12:40:29.757Z,31.90
2023-03-15T12:42:58.837Z,32.03
2023-03-15T12:45:46.216Z,29.08
2023-03-15T12:48:22.314Z,28.70
2023-03-15T12:50:56.587Z,28.85
2023-03-15T12:53:39.395Z,27.63
2023-03-15T12:56:30.667Z,27.65
2023-03-15T12:59:13.623Z,26.35
2023-03-15T13:01:43.747Z,27.23
2023-03-15T13:04:15.922Z,25.88
2023-03-15T13:07:14.091Z,26.23
2023-03-15T13:10:12.077Z,27.00
2023-03-15T13:15:40.742Z,25.42
2023-03-15T13:18:22.895Z,27.95
2023-03-15T13:21:38.188Z,26.00
2023-03-15T13:24:23.945Z,28.27
2023-03-15T13:27:08.625Z,26.38
2023-03-15T13:29:38.317Z,26.38
2023-03-15T13:32:20.663Z,27.10
2023-03-15T13:34:50.847Z,27.83
2023-03-15T13:37:27.761Z,25.63
2023-03-15T13:40:13.871Z,27.00
2023-03-15T13:42:44.288Z,25.95
2023-03-15T13:45:17.437Z,26.55
2023-03-15T13:47:48.595Z,27.48
2023-03-15T13:50:22.531Z,27.92
2023-03-15T13:52:52.035Z,27.13
2023-03-15T13:55:26.232Z,28.27
2023-03-15T13:58:06.435Z,26.63
2023-03-15T14:00:37.882Z,26.80
2023-03-15T14:03:18.425Z,25.45
2023-03-15T14:05:59.658Z,27.33
2023-03-15T14:08:39.386Z,26.73
2023-03-15T14:11:13.784Z,26.52
2023-03-15T14:14:05.192Z,25.92
2023-03-15T14:17:03.502Z,28.15
2023-03-15T14:19:37.814Z,26.33
2023-03-15T14:22:19.277Z,26.58
2023-03-15T14:24:53.396Z,28.35
2023-03-15T14:27:29.006Z,28.15
2023-03-15T14:30:02.286Z,27.10
2023-03-15T14:32:38.563Z,27.60
2023-03-15T14:35:33.523Z,26.58
2023-03-15T14:38:23.976Z,27.55
2023-03-15T14:40:55.202Z,30.50
2023-03-15T14:43:24.573Z,30.17
2023-03-15T14:45:53.714Z,30.52
2023-03-15T14:48:41.723Z,31.55
2023-03-15T14:51:19.451Z,28.35
2023-03-15T14:53:52.649Z,28.67
2023-03-15T14:56:22.243Z,28.10
2023-03-15T14:58:55.061Z,26.48
2023-03-15T15:01:46.941Z,28.13
2023-03-15T15:04:17.222Z,27.45
2023-03-15T15:06:53.611Z,27.60
2023-03-15T15:09:31.843Z,30.00
2023-03-15T15:12:01.035Z,27.92
2023-03-15T15:14:30.247Z,30.02
2023-03-15T15:16:59.686Z,28.35
2023-03-15T15:19:28.820Z,29.02
2023-03-15T15:21:58.880Z,28.17
2023-03-15T15:24:29.213Z,26.55
2023-03-15T15:27:00.808Z,28.52
2023-03-15T15:29:30.128Z,32.13
2023-03-15T15:32:01.971Z,29.10
2023-03-15T15:34:31.124Z,27.83
2023-03-15T15:37:00.468Z,27.45
2023-03-15T15:39:30.586Z,28.83
2023-03-15T15:41:59.748Z,29.80
2023-03-15T15:44:29.106Z,30.45
2023-03-15T15:46:58.565Z,31.98
2023-03-15T15:49:27.975Z,28.63
2023-03-15T15:51:57.329Z,28.80
2023-03-15T15:54:36.595Z,28.23
2023-03-15T15:57:07.315Z,29.20
2023-03-15T15:59:38.162Z,28.55
2023-03-15T16:02:23.135Z,26.95
2023-03-15T16:04:52.788Z,28.02
2023-03-15T16:07:21.987Z,28.92
2023-03-15T16:09:58.002Z,27.38
2023-03-15T16:12:28.266Z,29.05
2023-03-15T16:14:58.424Z,27.90
2023-03-15T16:17:28.279Z,28.50
2023-03-15T16:19:57.735Z,28.42
2023-03-15T16:22:28.585Z,27.20
2023-03-15T16:25:02.464Z,27.52
2023-03-15T16:27:32.459Z,28.02
2023-03-15T16:30:03.770Z,29.40
2023-03-15T16:32:44.554Z,28.77
2023-03-15T16:35:18.537Z,28.02
2023-03-15T16:37:50.152Z,29.25
2023-03-15T16:40:31.557Z,29.40
2023-03-15T16:43:01.640Z,28.65
2023-03-15T16:45:30.909Z,28.95
2023-03-15T16:48:00.067Z,27.27
2023-03-15T16:50:34.628Z,28.80
2023-03-15T16:53:09.251Z,28.55
2023-03-15T16:55:41.957Z,28.33
2023-03-15T16:58:20.445Z,30.48
2023-03-15T17:00:49.611Z,27.25
2023-03-15T17:03:19.281Z,28.52
2023-03-15T17:05:50.221Z,29.02
2023-03-15T17:08:23.021Z,29.40
2023-03-15T17:10:52.460Z,28.30
2023-03-15T17:13:29.906Z,29.67
2023-03-15T17:15:59.143Z,30.55
2023-03-15T17:18:30.973Z,30.60
2023-03-15T17:21:00.196Z,30.67
2023-03-15T17:23:30.212Z,31.52
2023-03-15T17:26:00.091Z,30.95
2023-03-15T17:28:29.778Z,31.15
2023-03-15T17:31:14.238Z,31.75
2023-03-15T17:33:48.782Z,30.60
2023-03-15T17:36:24.717Z,32.78
2023-03-15T17:38:55.835Z,31.58
2023-03-15T17:41:38.372Z,32.17
2023-03-15T17:44:07.853Z,32.33
2023-03-15T17:46:37.114Z,31.50
2023-03-15T17:49:10.005Z,33.67
2023-03-15T17:51:40.236Z,32.83
2023-03-15T17:54:23.012Z,32.20
2023-03-15T17:56:52.592Z,33.22
2023-03-15T17:59:21.792Z,30.65
2023-03-15T18:01:52.260Z,31.95
2023-03-15T18:04:22.747Z,31.73
2023-03-15T18:06:51.950Z,30.40
2023-03-15T18:09:23.171Z,30.70
2023-03-15T18:11:52.346Z,31.08
2023-03-15T18:14:21.583Z,31.17
2023-03-15T18:16:50.922Z,30.85
2023-03-15T18:19:20.112Z,31.13
2023-03-15T18:21:49.244Z,31.63
2023-03-15T18:24:18.624Z,31.75
2023-03-15T18:26:48.953Z,30.23
2023-03-15T18:29:18.062Z,31.13
2023-03-15T18:31:47.303Z,32.67
2023-03-15T18:34:18.162Z,31.27
2023-03-15T18:36:47.340Z,30.77
2023-03-15T18:39:16.806Z,32.17
2023-03-15T18:41:46.068Z,31.80
2023-03-15T18:44:15.202Z,32.45
2023-03-15T18:46:47.016Z,33.53
2023-03-15T18:49:21.811Z,34.75
2023-03-15T18:51:50.989Z,35.78
2023-03-15T18:54:20.207Z,34.00
2023-03-15T18:56:49.370Z,34.60
2023-03-15T18:59:19.273Z,33.00
2023-03-15T19:01:48.505Z,35.78
2023-03-15T19:04:17.655Z,35.90
2023-03-15T19:06:46.815Z,37.63
2023-03-15T19:09:16.247Z,35.97
2023-03-15T19:11:45.376Z,38.03
2023-03-15T19:14:14.562Z,39.38
2023-03-15T19:16:43.761Z,41.75
2023-03-15T19:19:12.902Z,43.33
2023-03-15T19:21:43.369Z,37.63
2023-03-15T19:24:13.037Z,39.92
2023-03-15T19:26:42.859Z,40.42
2023-03-15T19:29:12.105Z,40.15
2023-03-15T19:31:41.342Z,43.72
2023-03-15T19:34:10.579Z,45.83
2023-03-15T19:36:39.821Z,45.15
2023-03-15T19:39:11.357Z,46.53
2023-03-15T19:41:42.468Z,52.78
2023-03-15T19:44:12.705Z,56.17
2023-03-15T19:46:42.448Z,56.67
2023-03-15T19:49:11.682Z,52.95
2023-03-15T19:51:40.986Z,50.20
2023-03-15T19:54:10.250Z,46.85
2023-03-15T19:56:39.515Z,44.45
2023-03-15T19:59:10.164Z,40.25
2023-03-15T20:01:39.535Z,42.55
2023-03-15T20:04:08.869Z,41.85
2023-03-15T20:06:38.061Z,44.45
2023-03-15T20:09:07.217Z,43.53
2023-03-15T20:11:36.387Z,41.97
2023-03-15T20:14:05.767Z,44.35
2023-03-15T20:16:35.088Z,42.28
2023-03-15T20:19:04.296Z,42.10
2023-03-15T20:21:34.723Z,43.53
2023-03-15T20:24:05.214Z,42.70
2023-03-15T20:26:34.513Z,42.25
2023-03-15T20:29:04.329Z,41.90
2023-03-15T20:31:34.663Z,41.97
2023-03-15T20:34:06.670Z,41.83
2023-03-15T20:36:36.392Z,42.95
2023-03-15T20:39:06.620Z,43.75
2023-03-15T20:41:35.885Z,41.38
2023-03-15T20:44:05.080Z,42.78
2023-03-15T20:46:34.958Z,43.65
2023-03-15T20:49:04.149Z,42.13
2023-03-15T20:51:33.365Z,42.67
2023-03-15T20:54:02.580Z,44.55
2023-03-15T20:56:31.846Z,48.38
2023-03-15T20:59:03.166Z,46.63
2023-03-15T21:01:34.229Z,48.22
2023-03-15T21:04:03.446Z,48.35
2023-03-15T21:06:32.660Z,48.38
2023-03-15T21:09:02.455Z,45.53
2023-03-15T21:11:31.717Z,45.20
2023-03-15T21:14:01.245Z,44.63
2023-03-15T21:16:30.425Z,44.58
2023-03-15T21:18:59.538Z,46.13
2023-03-15T21:21:29.536Z,45.10
2023-03-15T21:23:58.820Z,45.33
2023-03-15T21:26:27.981Z,43.90
2023-03-15T21:28:57.062Z,43.22
2023-03-15T21:31:29.268Z,43.03
2023-03-15T21:33:58.496Z,42.47
2023-03-15T21:36:27.659Z,44.38
2023-03-15T21:38:56.815Z,43.83
2023-03-15T21:41:26.072Z,44.65
2023-03-15T21:43:55.177Z,45.58
2023-03-15T21:46:24.878Z,45.78
2023-03-15T21:48:54.137Z,46.33
2023-03-15T21:51:23.316Z,44.78
2023-03-15T21:53:52.624Z,44.50
2023-03-15T21:56:26.845Z,45.38
2023-03-15T21:58:56.927Z,43.90
2023-03-15T22:01:26.512Z,43.97
2023-03-15T22:03:55.719Z,47.05
2023-03-15T22:06:24.934Z,47.85
2023-03-15T22:08:54.102Z,46.92
2023-03-15T22:11:23.826Z,46.22
2023-03-15T22:13:53.720Z,44.17
2023-03-15T22:16:22.966Z,45.50
2023-03-15T22:18:52.119Z,45.50
2023-03-15T22:21:21.358Z,45.22
2023-03-15T22:23:52.325Z,45.20
2023-03-15T22:26:23.379Z,45.30
2023-03-15T22:28:53.009Z,44.35
2023-03-15T22:31:22.275Z,45.47
2023-03-15T22:33:51.540Z,46.63
2023-03-15T22:36:20.996Z,46.25
2023-03-15T22:38:50.958Z,45.22
2023-03-15T22:41:21.738Z,47.08
2023-03-15T22:43:53.516Z,49.72
2023-03-15T22:46:23.263Z,49.33
2023-03-15T22:48:52.456Z,46.97
2023-03-15T22:51:21.759Z,45.92
2023-03-15T22:53:51.097Z,46.67
2023-03-15T22:56:20.456Z,45.42
2023-03-15T22:58:49.808Z,45.35
2023-03-15T23:01:18.999Z,44.20
2023-03-15T23:03:48.252Z,43.67
2023-03-15T23:06:18.149Z,45.42
2023-03-15T23:08:47.908Z,47.72
2023-03-15T23:11:17.108Z,45.35
2023-03-15T23:13:49.746Z,44.90
2023-03-15T23:16:20.071Z,47.03
2023-03-15T23:18:49.728Z,46.45
2023-03-15T23:21:19.123Z,46.03
2023-03-15T23:23:49.070Z,47.00
2023-03-15T23:26:20.466Z,50.03
2023-03-15T23:28:49.701Z,47.33
2023-03-15T23:31:19.384Z,47.33
2023-03-15T23:33:48.755Z,46.75
2023-03-15T23:36:18.037Z,45.53
2023-03-15T23:38:47.264Z,47.78
2023-03-15T23:41:16.470Z,46.78
2023-03-15T23:43:45.660Z,46.55
2023-03-15T23:46:15.436Z,45.50
2023-03-15T23:48:44.781Z,47.90
2023-03-15T23:51:13.961Z,47.20
2023-03-15T23:53:43.177Z,46.55
2023-03-15T23:56:12.519Z,48.60
2023-03-15T23:58:41.836Z,48.50
